Time;durP1;ratioP1;P1;durP2;ratioP2;P2;SDS_P1;SDS_P2;PMS_P1;PMS_P2;Temp;Humidity;BMP_temperature;BMP_pressure;BME280_temperature;BME280_humidity;BME280_pressure;Samples;Min_cycle;Max_cycle;Signal;HPM_P1;HPM_P2
2022/01/19 00:01:54;;;;;;;2.33;1.63;;;;;;;5.70;72.09;102128.09;5017425;28;20053;-92
2022/01/19 00:04:22;;;;;;;;;;;;;;;5.75;72.54;102147.38;5031314;28;20061;-91
2022/01/19 00:06:51;;;;;;;2.63;1.92;;;;;;;5.36;73.08;102095.66;5032276;28;19920;-93
2022/01/19 00:09:26;;;;;;;2.88;2.42;;;;;;;5.39;73.15;102100.91;5030425;28;20476;-93
2022/01/19 00:11:53;;;;;;;3.45;2.70;;;;;;;5.40;72.87;102100.91;5010817;28;20049;-92
2022/01/19 00:14:20;;;;;;;6.68;2.65;;;;;;;5.45;73.02;102111.44;5031846;28;20053;-92
2022/01/19 00:16:50;;;;;;;4.32;2.80;;;;;;;5.47;73.37;102105.31;5025489;28;20139;-92
2022/01/19 00:19:22;;;;;;;4.63;3.20;;;;;;;5.28;73.19;102046.63;5030862;28;20052;-94
2022/01/19 00:21:58;;;;;;;3.58;3.00;;;;;;;5.41;73.22;102050.13;5023376;28;20494;-91
2022/01/19 00:24:31;;;;;;;3.72;3.25;;;;;;;5.54;73.07;102064.16;5032080;28;20042;-96
2022/01/19 00:27:05;;;;;;;4.03;3.63;;;;;;;5.23;73.47;102003.72;5021841;28;20050;-95
2022/01/19 00:29:33;;;;;;;4.38;3.83;;;;;;;5.44;73.98;102039.63;5025821;28;20480;-92
2022/01/19 00:32:00;;;;;;;3.90;3.50;;;;;;;5.40;74.05;102023.84;5014916;28;20054;-92
2022/01/19 00:34:31;;;;;;;3.78;3.20;;;;;;;5.46;73.03;102040.50;5037043;28;20049;-93
2022/01/19 00:36:58;;;;;;;4.05;3.47;;;;;;;5.38;73.22;102022.97;5027892;28;20625;-93
2022/01/19 00:39:30;;;;;;;3.78;3.22;;;;;;;5.51;73.39;102037.91;5031423;28;20110;-93
2022/01/19 00:42:05;;;;;;;4.90;3.38;;;;;;;5.59;73.70;102054.53;5027129;28;20060;-93
2022/01/19 00:44:32;;;;;;;3.95;3.55;;;;;;;5.22;73.86;102001.97;5019024;28;20038;-94
2022/01/19 00:47:10;;;;;;;4.60;3.70;;;;;;;5.55;73.76;102056.25;5032774;28;20046;-92
2022/01/19 00:49:37;;;;;;;4.70;3.55;;;;;;;5.47;73.11;102031.75;5037620;28;20052;-93
2022/01/19 00:52:04;;;;;;;5.35;4.28;;;;;;;5.27;73.21;101988.84;5034955;28;20555;-94
2022/01/19 00:54:35;;;;;;;4.85;4.13;;;;;;;5.50;74.01;102051.91;5034605;28;20049;-93
2022/01/19 00:57:03;;;;;;;5.07;3.33;;;;;;;5.31;73.67;102013.34;5033005;28;21190;-91
2022/01/19 00:59:30;;;;;;;3.60;3.30;;;;;;;5.25;73.64;102014.22;5036907;28;20127;-92
2022/01/19 01:02:02;;;;;;;3.47;2.97;;;;;;;5.39;73.48;102022.09;5029006;28;20053;-90
2022/01/19 01:04:37;;;;;;;3.55;2.90;;;;;;;5.28;73.15;102015.09;5027245;28;20492;-91
2022/01/19 01:07:04;;;;;;;5.95;3.28;;;;;;;5.49;74.17;102061.53;5010746;28;20061;-91
2022/01/19 01:09:32;;;;;;;3.90;2.85;;;;;;;5.48;73.85;102056.28;5035366;28;20046;-92
2022/01/19 01:12:20;;;;;;;3.47;3.17;;;;;;;5.18;73.75;101992.34;5033028;28;20077;-92
2022/01/19 01:20:36;;;;;;;3.67;2.70;;;;;;;5.33;73.53;102027.38;5029985;28;20127;-92
2022/01/19 01:23:05;;;;;;;4.30;2.80;;;;;;;5.22;74.08;101994.06;5016871;28;20053;-91
2022/01/19 01:25:33;;;;;;;3.63;2.70;;;;;;;5.29;73.99;102008.09;5032220;28;20053;-93
2022/01/19 01:28:14;;;;;;;3.45;2.83;;;;;;;5.43;74.50;102024.75;5038219;28;20044;-92
2022/01/19 01:30:47;;;;;;;3.65;3.00;;;;;;;5.25;74.25;101986.22;5039909;28;20083;-92
2022/01/19 01:33:17;;;;;;;5.15;3.70;;;;;;;5.23;74.56;101977.44;5024078;28;20067;-91
2022/01/19 01:35:50;;;;;;;4.30;2.90;;;;;;;5.23;74.46;101966.94;5041497;28;20046;-93
2022/01/19 01:38:18;;;;;;;3.17;2.50;;;;;;;5.14;73.68;101951.19;5040645;28;20057;-91
2022/01/19 01:41:13;;;;;;;4.25;2.75;;;;;;;5.33;73.88;101991.47;5038901;28;20114;-92
2022/01/19 01:43:59;;;;;;;3.40;2.72;;;;;;;5.36;73.74;101988.81;5039080;28;20057;-91
2022/01/19 01:46:43;;;;;;;2.95;2.75;;;;;;;5.33;73.88;101993.22;5045493;28;20132;-91
2022/01/19 01:55:14;;;;;;;3.40;2.80;;;;;;;5.16;73.36;101996.72;5040368;28;20076;-92
2022/01/19 01:57:45;;;;;;;4.15;3.10;;;;;;;5.01;73.62;101973.09;5040465;28;20061;-92
2022/01/19 02:00:30;;;;;;;3.00;2.70;;;;;;;5.06;73.47;101960.81;5036116;28;20437;-93
2022/01/19 02:03:01;;;;;;;3.03;2.70;;;;;;;4.96;73.58;101953.81;5032849;28;20080;-93
2022/01/19 02:05:30;;;;;;;3.72;2.97;;;;;;;5.17;73.56;101981.84;5031336;28;20120;-92
2022/01/19 02:08:16;;;;;;;4.30;3.03;;;;;;;5.27;74.11;101981.84;5033104;28;20049;-93
2022/01/19 02:16:26;;;;;;;3.05;2.20;;;;;;;5.25;73.21;101936.31;5022287;28;20042;-91
2022/01/19 02:22:09;;;;;;;2.60;2.40;;;;;;;5.19;74.08;101944.22;5033944;28;20037;-93
2022/01/19 02:24:44;;;;;;;2.95;2.38;;;;;;;5.01;74.33;101917.94;5039292;28;20045;-93
2022/01/19 02:41:11;;;;;;;4.25;2.90;;;;;;;5.07;74.50;101919.69;5030053;28;20056;-95
2022/01/19 02:43:49;;;;;;;3.28;2.47;;;;;;;4.97;74.87;101903.06;5004864;28;20415;-92
2022/01/19 02:49:16;;;;;;;3.10;2.35;;;;;;;4.93;75.09;101896.06;5018960;28;20034;-91
2022/01/19 02:51:47;;;;;;;3.00;2.42;;;;;;;5.04;74.56;101909.16;5018121;28;20053;-96
2022/01/19 02:54:18;;;;;;;4.72;2.30;;;;;;;4.97;74.42;101886.44;5029964;28;20038;-93
2022/01/19 02:56:51;;;;;;;2.58;2.38;;;;;;;5.01;74.51;101886.44;5035573;28;20049;-92
2022/01/19 02:59:40;;;;;;;3.00;2.67;;;;;;;5.04;75.29;101904.78;5033935;28;20049;-93
2022/01/19 03:10:58;;;;;;;2.95;2.20;;;;;;;4.79;75.59;101850.56;5019106;28;20070;-92
2022/01/19 03:13:26;;;;;;;3.00;2.40;;;;;;;4.78;75.34;101851.44;5030092;28;20085;-92
2022/01/19 03:15:52;;;;;;;3.90;2.45;;;;;;;4.90;75.13;101865.44;5031406;28;20049;-94
2022/01/19 03:18:19;;;;;;;4.53;2.60;;;;;;;4.65;74.83;101815.59;5011225;28;20468;-92
2022/01/19 03:20:46;;;;;;;4.30;2.50;;;;;;;5.05;74.47;101875.03;5026452;28;20057;-94
2022/01/19 03:23:22;;;;;;;2.40;2.10;;;;;;;5.01;74.87;101864.56;5029398;28;20045;-92
2022/01/19 03:25:53;;;;;;;4.40;2.53;;;;;;;4.83;74.31;101840.06;5032051;28;20457;-94
2022/01/19 03:28:20;;;;;;;2.88;2.50;;;;;;;4.82;75.04;101853.19;5029162;28;20040;-93
2022/01/19 03:30:47;;;;;;;2.58;2.20;;;;;;;4.80;75.01;101853.19;5027698;28;20083;-92
2022/01/19 03:33:15;;;;;;;2.72;2.10;;;;;;;4.52;74.49;101806.84;5023393;28;20049;-95
2022/01/19 03:35:43;;;;;;;2.42;2.10;;;;;;;4.55;74.93;101815.59;5025616;28;20053;-94
2022/01/19 03:38:12;;;;;;;2.20;2.00;;;;;;;4.79;75.25;101855.81;5028089;28;20140;-92
2022/01/19 03:40:40;;;;;;;2.88;2.58;;;;;;;4.53;74.63;101803.34;5026572;28;20054;-93
2022/01/19 03:43:09;;;;;;;2.47;2.22;;;;;;;4.61;74.47;101808.56;5028230;28;20546;-94
2022/01/19 03:45:37;;;;;;;2.40;2.20;;;;;;;4.46;74.48;101784.09;5027327;28;20058;-93
2022/01/19 03:48:36;;;;;;;2.60;2.13;;;;;;;4.83;74.26;101836.56;5029585;28;20107;-93
2022/01/19 03:51:25;;;;;;;2.63;2.17;;;;;;;4.69;74.35;101805.09;5028269;28;20053;-94
2022/01/19 03:54:02;;;;;;;3.90;2.30;;;;;;;4.88;73.96;101830.44;5033130;28;20053;-92
2022/01/19 03:56:30;;;;;;;3.70;2.35;;;;;;;4.48;74.70;101755.25;5033146;28;20052;-91
2022/01/19 03:58:59;;;;;;;2.50;2.28;;;;;;;4.52;74.50;101763.13;5031398;28;20056;-93
2022/01/19 04:01:28;;;;;;;3.97;2.20;;;;;;;4.52;74.27;101741.25;5027482;28;20048;-94
2022/01/19 04:07:07;;;;;;;2.45;2.05;;;;;;;4.73;74.08;101771.81;5030102;28;20586;-93
2022/01/19 04:09:41;;;;;;;2.70;2.42;;;;;;;4.48;74.13;101722.03;5037956;28;20064;-94
2022/01/19 04:12:18;;;;;;;2.40;2.20;;;;;;;4.69;73.32;101751.75;5047526;28;20045;-96
2022/01/19 04:14:45;;;;;;;3.08;2.78;;;;;;;4.63;73.30;101755.22;5044374;28;20057;-96
2022/01/19 04:17:15;;;;;;;3.10;2.85;;;;;;;4.69;73.01;101754.38;5047276;28;20042;-95
2022/01/19 04:19:46;;;;;;;3.47;2.95;;;;;;;4.41;73.37;101712.41;5052061;28;20076;-95
2022/01/19 04:22:19;;;;;;;3.42;3.13;;;;;;;4.52;73.73;101731.66;5046006;28;20028;-92
2022/01/19 04:24:48;;;;;;;5.07;3.75;;;;;;;4.49;73.67;101725.53;5048158;28;20141;-93
2022/01/19 04:30:06;;;;;;;3.92;3.53;;;;;;;4.62;74.36;101747.34;5034570;28;20483;-93
2022/01/19 04:35:26;;;;;;;4.97;4.18;;;;;;;4.44;74.19;101716.78;5038743;28;20053;-92
2022/01/19 04:49:06;;;;;;;6.25;5.20;;;;;;;4.27;74.92;101680.06;5038106;28;20071;-94
2022/01/19 05:03:00;;;;;;;8.00;5.47;;;;;;;4.07;76.62;101697.56;5033097;28;20053;-93
2022/01/19 05:05:33;;;;;;;9.25;5.63;;;;;;;4.01;76.84;101697.56;5037537;28;20041;-93
2022/01/19 05:08:12;;;;;;;8.05;5.72;;;;;;;3.94;77.21;101693.16;5037272;28;20068;-92
2022/01/19 05:13:30;;;;;;;6.43;5.75;;;;;;;3.53;76.81;101623.28;5034991;28;20053;-92
2022/01/19 05:15:58;;;;;;;9.70;6.55;;;;;;;3.47;77.73;101618.88;5036823;28;20105;-93
2022/01/19 05:18:26;;;;;;;8.68;6.10;;;;;;;3.69;77.92;101646.00;5047582;28;20053;-93
2022/01/19 05:21:06;;;;;;;7.38;6.28;;;;;;;3.67;78.44;101644.25;5040166;28;20053;-93
2022/01/19 05:23:33;;;;;;;8.63;6.00;;;;;;;3.58;78.45;101637.25;5039673;28;20042;-94
2022/01/19 05:26:01;;;;;;;7.65;5.97;;;;;;;3.54;78.34;101627.66;5039015;28;20049;-93
2022/01/19 05:28:31;;;;;;;11.18;6.30;;;;;;;3.53;78.86;101624.16;5040181;28;20052;-92
2022/01/19 05:30:59;;;;;;;8.23;6.50;;;;;;;3.46;79.36;101630.22;5018204;28;20136;-93
2022/01/19 05:33:57;;;;;;;8.52;6.20;;;;;;;3.64;79.35;101665.19;5036451;28;20049;-93
2022/01/19 05:36:24;;;;;;;11.43;7.25;;;;;;;3.28;79.36;101601.44;5032652;28;20037;-91
2022/01/19 05:38:51;;;;;;;8.48;7.00;;;;;;;3.31;79.89;101606.63;5036812;28;20045;-91
2022/01/19 05:41:18;;;;;;;10.05;7.35;;;;;;;3.18;79.75;101582.19;5035613;28;20045;-92
2022/01/19 05:43:45;;;;;;;10.73;7.75;;;;;;;3.40;79.69;101609.28;5028532;28;20069;-92
2022/01/19 05:46:14;;;;;;;11.90;7.53;;;;;;;3.50;79.63;101631.13;5037791;28;20456;-92
2022/01/19 05:48:41;;;;;;;10.57;7.95;;;;;;;3.55;80.05;101636.38;5038374;28;20049;-91
2022/01/19 05:51:53;;;;;;;10.38;7.63;;;;;;;3.51;79.74;101636.38;5026836;28;20041;-93
2022/01/19 05:54:24;;;;;;;11.85;7.88;;;;;;;3.33;80.71;101604.91;5029938;28;20053;-92
2022/01/19 05:57:40;;;;;;;10.60;7.40;;;;;;;3.46;80.48;101618.91;5036551;28;20080;-92
2022/01/19 06:00:08;;;;;;;11.35;7.45;;;;;;;3.28;79.75;101587.47;5035679;28;20057;-92
2022/01/19 06:02:56;;;;;;;10.43;7.60;;;;;;;3.41;80.15;101620.66;5010167;28;20049;-91
2022/01/19 06:05:23;;;;;;;13.27;7.97;;;;;;;3.16;80.93;101585.66;5028818;28;20067;-95
2022/01/19 06:07:59;;;;;;;11.60;8.30;;;;;;;3.18;80.15;101589.16;5033464;28;20377;-91
2022/01/19 06:10:45;;;;;;;11.60;8.43;;;;;;;3.35;79.98;101618.00;5035631;28;20046;-91
2022/01/19 06:13:36;;;;;;;13.90;8.50;;;;;;;3.35;80.47;101639.81;5027606;28;20471;-91
2022/01/19 06:16:04;;;;;;;13.80;8.38;;;;;;;3.34;80.43;101648.53;5035430;28;20049;-91
2022/01/19 06:18:33;;;;;;;12.77;8.15;;;;;;;3.24;80.25;101624.97;5030251;28;20049;-92
2022/01/19 06:21:04;;;;;;;12.68;8.27;;;;;;;3.22;80.39;101626.69;5038053;28;20133;-92
2022/01/19 06:23:31;;;;;;;13.25;7.82;;;;;;;3.35;78.89;101626.72;5039455;28;20055;-91
2022/01/19 06:25:59;;;;;;;13.07;7.90;;;;;;;3.35;79.07;101631.97;5036479;28;20484;-91
2022/01/19 06:28:29;;;;;;;12.25;8.10;;;;;;;3.11;79.73;101601.38;5037786;28;20104;-91
2022/01/19 06:31:00;;;;;;;12.40;8.45;;;;;;;2.99;79.74;101577.78;5034667;28;20049;-91
2022/01/19 06:33:27;;;;;;;14.93;8.40;;;;;;;3.30;80.40;101632.84;5031399;28;20052;-92
2022/01/19 06:35:59;;;;;;;13.60;8.15;;;;;;;3.10;80.02;101591.78;5015214;28;20070;-94
2022/01/19 06:38:28;;;;;;;13.30;8.38;;;;;;;3.09;79.15;101595.28;5041527;28;20057;-93
2022/01/19 06:40:55;;;;;;;12.60;8.23;;;;;;;2.92;80.69;101573.41;5031431;28;20056;-93
2022/01/19 06:43:23;;;;;;;12.75;8.40;;;;;;;3.20;80.59;101629.31;5030455;28;20111;-92
2022/01/19 06:49:46;;;;;;;13.23;8.65;;;;;;;3.15;81.39;101618.81;5015943;28;20099;-96
2022/01/19 06:52:24;;;;;;;11.23;8.15;;;;;;;2.87;81.35;101572.50;5026875;28;20053;-96
2022/01/19 06:55:09;;;;;;;13.40;8.90;;;;;;;2.78;81.55;101562.03;5032090;28;20147;-92
2022/01/19 06:58:03;;;;;;;11.93;8.55;;;;;;;2.83;81.82;101570.78;5029297;28;20045;-93
2022/01/19 07:00:33;;;;;;;15.45;9.38;;;;;;;2.65;82.04;101532.34;5032182;28;20049;-96
2022/01/19 07:03:03;;;;;;;12.52;9.15;;;;;;;2.91;82.33;101574.28;5023598;28;20715;-92
2022/01/19 07:05:31;;;;;;;15.20;9.63;;;;;;;3.03;82.22;101587.38;5027667;28;20045;-92
2022/01/19 07:07:58;;;;;;;12.13;8.43;;;;;;;3.10;81.90;101596.16;5026471;28;20049;-92
2022/01/19 07:10:31;;;;;;;17.08;9.02;;;;;;;3.08;81.74;101583.06;5028182;28;20049;-94
2022/01/19 07:12:59;;;;;;;13.68;8.68;;;;;;;3.07;81.62;101576.06;5031273;28;20072;-91
2022/01/19 07:15:26;;;;;;;12.40;7.95;;;;;;;3.18;81.03;101589.16;5027653;28;20500;-91
2022/01/19 07:17:56;;;;;;;12.15;9.05;;;;;;;3.05;81.71;101576.94;5028330;28;20076;-92
2022/01/19 07:20:27;;;;;;;13.85;9.05;;;;;;;3.04;82.41;101581.28;5031914;28;20053;-95
2022/01/19 07:22:56;;;;;;;13.18;9.05;;;;;;;2.87;82.53;101554.19;5030855;28;20049;-92
2022/01/19 07:25:44;;;;;;;15.93;9.93;;;;;;;2.94;82.94;101562.94;5031409;28;20037;-93
2022/01/19 07:28:12;;;;;;;15.68;9.88;;;;;;;2.79;82.69;101537.63;5036794;28;20052;-94
2022/01/19 07:30:39;;;;;;;16.50;9.30;;;;;;;2.83;81.49;101545.47;5039966;28;20037;-93
2022/01/19 07:33:06;;;;;;;15.25;9.65;;;;;;;2.79;81.34;101524.53;5039738;28;20054;-93
2022/01/19 07:35:33;;;;;;;17.83;9.60;;;;;;;2.78;81.63;101528.91;5029464;28;20053;-93
2022/01/19 07:38:00;;;;;;;14.82;9.50;;;;;;;2.82;80.81;101529.78;5028702;28;20065;-92
2022/01/19 07:40:27;;;;;;;13.43;9.25;;;;;;;2.56;80.59;101493.09;5034008;28;20071;-92
2022/01/19 07:42:59;;;;;;;17.90;10.07;;;;;;;2.65;80.64;101510.56;5017158;28;20042;-91
2022/01/19 07:45:26;;;;;;;14.90;9.70;;;;;;;2.63;81.41;101512.28;5032303;28;20042;-92
2022/01/19 07:47:57;;;;;;;15.20;10.07;;;;;;;2.67;81.44;101520.16;5035302;28;20045;-93
2022/01/19 07:50:24;;;;;;;21.98;9.65;;;;;;;2.78;81.44;101538.50;5000746;28;20554;-93
2022/01/19 07:53:05;;;;;;;14.85;9.65;;;;;;;2.58;81.45;101507.03;5021253;28;20050;-94
2022/01/19 07:55:43;;;;;;;18.83;10.25;;;;;;;2.80;81.22;101529.78;5027004;28;20049;-94
2022/01/19 07:58:11;;;;;;;20.23;9.80;;;;;;;2.83;81.41;101532.38;5026387;28;20412;-92
2022/01/19 08:00:42;;;;;;;17.58;10.65;;;;;;;2.89;81.36;101536.78;5034727;28;20389;-92
2022/01/19 08:03:10;;;;;;;17.40;10.50;;;;;;;2.83;81.51;101523.69;5027572;28;20041;-93
2022/01/19 08:05:37;;;;;;;18.45;10.27;;;;;;;2.95;81.43;101536.78;5025878;28;20120;-93
2022/01/19 08:08:04;;;;;;;17.35;10.63;;;;;;;2.77;81.12;101500.13;5026454;28;20128;-92
2022/01/19 08:10:42;;;;;;;13.80;9.98;;;;;;;2.93;80.96;101519.34;5028984;28;20111;-91
2022/01/19 08:13:12;;;;;;;15.25;9.75;;;;;;;2.69;80.96;101478.28;5021107;28;20041;-92
2022/01/19 08:15:38;;;;;;;13.73;9.57;;;;;;;2.83;81.07;101488.81;5016019;28;20061;-93
2022/01/19 08:18:07;;;;;;;19.42;10.32;;;;;;;2.68;80.27;101466.97;5027599;28;20157;-93
2022/01/19 08:20:35;;;;;;;16.40;9.40;;;;;;;3.06;79.96;101524.59;5023499;28;20092;-93
2022/01/19 08:23:05;;;;;;;21.08;10.05;;;;;;;2.93;80.64;101506.25;5025611;28;20149;-93
2022/01/19 08:25:32;;;;;;;17.85;9.32;;;;;;;3.16;79.92;101538.56;5026247;28;20053;-95
2022/01/19 08:28:06;;;;;;;15.80;9.98;;;;;;;3.22;80.40;101522.00;5015632;28;20172;-93
2022/01/19 08:30:45;;;;;;;13.98;9.35;;;;;;;3.17;79.54;101475.75;5026071;28;20053;-92
2022/01/19 08:33:14;;;;;;;14.32;8.70;;;;;;;3.73;78.19;101500.19;5027035;28;20052;-93
2022/01/19 08:35:42;;;;;;;15.80;9.32;;;;;;;3.70;76.46;101479.22;5025858;28;20127;-93
2022/01/19 08:38:11;;;;;;;15.55;8.95;;;;;;;3.83;77.20;101500.16;5022772;28;20148;-93
2022/01/19 08:40:38;;;;;;;13.48;9.10;;;;;;;3.99;76.85;101500.13;5025025;28;20063;-93
2022/01/19 08:43:06;;;;;;;13.18;8.82;;;;;;;4.04;75.71;101503.59;5024702;28;20056;-94
2022/01/19 08:45:35;;;;;;;14.82;9.32;;;;;;;4.34;75.06;101521.00;5003515;28;20047;-91
2022/01/19 08:48:03;;;;;;;23.88;10.07;;;;;;;4.25;74.20;101505.31;5020270;28;20517;-95
2022/01/19 08:50:30;;;;;;;20.45;9.48;;;;;;;4.20;75.17;101503.56;5020557;28;20120;-94
2022/01/19 08:52:59;;;;;;;15.93;9.60;;;;;;;4.36;74.34;101511.38;5019328;28;20081;-92
2022/01/19 08:55:30;;;;;;;18.10;10.02;;;;;;;4.35;75.24;101507.88;5020413;28;20519;-94
2022/01/19 08:58:05;;;;;;;18.67;9.38;;;;;;;4.12;73.91;101452.00;5025399;28;20057;-93
2022/01/19 09:00:34;;;;;;;17.20;9.65;;;;;;;4.23;74.34;101477.34;5023749;28;20069;-92
2022/01/19 09:03:03;;;;;;;15.23;9.95;;;;;;;4.29;74.34;101486.03;5028679;28;20144;-92
2022/01/19 09:05:33;;;;;;;18.15;9.63;;;;;;;4.27;74.81;101483.41;5030275;28;20049;-93
2022/01/19 09:08:00;;;;;;;14.93;8.95;;;;;;;4.21;74.94;101483.47;5025625;28;20084;-93
2022/01/19 09:10:30;;;;;;;13.93;9.35;;;;;;;4.12;74.43;101463.38;5032197;28;20053;-92
2022/01/19 09:13:02;;;;;;;13.70;9.95;;;;;;;4.17;74.87;101469.47;5026721;28;20163;-92
2022/01/19 09:15:29;;;;;;;18.50;9.90;;;;;;;4.07;75.42;101448.56;5028010;28;20106;-93
2022/01/19 09:17:57;;;;;;;18.80;10.63;;;;;;;3.89;75.33;101433.78;5027824;28;20068;-94
2022/01/19 09:20:33;;;;;;;15.90;9.88;;;;;;;3.91;76.18;101428.53;5030042;28;20049;-92
2022/01/19 09:23:05;;;;;;;19.70;10.95;;;;;;;4.08;75.99;101445.94;5027130;28;20064;-92
2022/01/19 09:25:46;;;;;;;18.58;11.35;;;;;;;4.23;75.12;101458.97;5025316;28;20143;-93
2022/01/19 09:28:16;;;;;;;19.90;11.35;;;;;;;4.48;74.18;101475.47;5029317;28;20104;-93
2022/01/19 09:30:46;;;;;;;21.92;10.75;;;;;;;4.57;73.45;101464.91;5025720;28;20172;-95
2022/01/19 09:33:22;;;;;;;18.27;10.93;;;;;;;4.57;72.90;101443.94;5029502;28;20115;-93
2022/01/19 09:38:33;;;;;;;23.27;11.23;;;;;;;4.79;71.99;101449.06;5029010;28;20128;-92
2022/01/19 09:41:01;;;;;;;18.63;11.45;;;;;;;4.57;72.12;101415.06;5027896;28;20387;-93
2022/01/19 09:43:30;;;;;;;21.65;12.13;;;;;;;4.51;71.84;101415.13;5022566;28;20053;-93
2022/01/19 09:46:00;;;;;;;18.90;11.32;;;;;;;4.25;72.15;101382.91;5007685;28;20677;-92
2022/01/19 09:48:28;;;;;;;16.45;11.05;;;;;;;4.38;73.55;101407.34;5029455;28;20057;-92
2022/01/19 09:50:57;;;;;;;17.83;11.00;;;;;;;4.61;72.96;101422.94;5027737;28;20069;-93
2022/01/19 09:53:28;;;;;;;18.58;11.60;;;;;;;4.54;72.53;101403.75;5029203;28;20049;-93
2022/01/19 09:55:59;;;;;;;15.60;10.60;;;;;;;4.20;72.60;101377.72;5030069;28;20049;-91
2022/01/19 09:58:29;;;;;;;20.60;11.73;;;;;;;4.41;72.23;101418.66;5029786;28;20107;-91
2022/01/19 10:00:59;;;;;;;18.85;11.43;;;;;;;4.53;72.27;101434.34;5028331;28;20049;-93
2022/01/19 10:03:29;;;;;;;20.73;12.07;;;;;;;4.40;73.37;101429.19;5026317;28;20049;-93
2022/01/19 10:06:07;;;;;;;18.38;11.23;;;;;;;4.47;72.84;101426.50;5026913;28;20041;-92
2022/01/19 10:08:50;;;;;;;19.60;11.73;;;;;;;4.07;73.38;101360.31;5031719;28;20049;-93
2022/01/19 10:17:10;;;;;;;19.73;11.90;;;;;;;4.76;72.11;101412.34;5028761;28;20042;-92
2022/01/19 10:19:43;;;;;;;19.45;12.23;;;;;;;4.77;71.32;101417.56;5030523;28;20370;-92
2022/01/19 10:22:17;;;;;;;19.75;12.15;;;;;;;4.81;71.71;101398.31;5024611;28;20134;-93
2022/01/19 10:24:51;;;;;;;17.92;11.45;;;;;;;4.94;71.26;101388.59;5022591;28;20400;-94
2022/01/19 10:27:47;;;;;;;21.23;11.75;;;;;;;5.09;70.33;101385.81;5021798;28;20136;-94
2022/01/19 10:30:20;;;;;;;20.00;12.63;;;;;;;5.30;68.64;101363.75;5028910;28;20076;-93
2022/01/19 10:32:59;;;;;;;19.52;12.32;;;;;;;5.65;68.44;101389.66;5013984;28;20061;-94
2022/01/19 10:35:37;;;;;;;20.80;12.00;;;;;;;5.76;67.96;101384.28;5042942;28;20112;-93
2022/01/19 10:38:28;;;;;;;19.02;12.35;;;;;;;5.43;67.34;101314.59;5038097;28;20057;-94
2022/01/19 10:44:19;;;;;;;18.55;11.52;;;;;;;5.54;67.45;101383.63;839088;22;20206;-95
2022/01/19 10:47:07;;;;;;;17.50;11.27;;;;;;;4.88;68.84;101317.75;5001295;28;20509;-95
2022/01/19 10:50:28;;;;;;;;;;;;;;;;;;;;;
2022/01/19 10:56:32;;;;;;;18.45;11.93;;;;;;;4.56;72.13;101324.16;5079733;22;20048;-95
2022/01/19 10:59:04;;;;;;;19.90;12.90;;;;;;;4.70;72.28;101336.31;5072219;28;20040;-96
2022/01/19 11:01:50;;;;;;;17.17;12.15;;;;;;;4.78;71.64;101361.59;5074700;28;20044;-93
2022/01/19 11:04:30;;;;;;;19.88;13.27;;;;;;;4.73;72.38;101359.88;5106479;22;20142;-96
2022/01/19 11:07:05;;;;;;;19.65;11.93;;;;;;;4.54;71.98;101333.81;5036113;28;20056;-95
2022/01/19 11:09:58;;;;;;;21.00;11.88;;;;;;;4.28;72.35;101306.88;5036783;28;20117;-96
2022/01/19 11:12:29;;;;;;;19.50;12.50;;;;;;;4.53;73.21;101375.78;5044044;28;20044;-95
2022/01/19 11:15:02;;;;;;;18.70;12.18;;;;;;;4.08;73.81;101308.78;5017926;28;20048;-94
2022/01/19 11:17:39;;;;;;;24.67;13.35;;;;;;;4.38;74.21;101373.25;5029596;28;20045;-95
2022/01/19 11:23:09;;;;;;;23.92;13.43;;;;;;;3.89;74.23;101294.91;5019170;23;20063;-93
2022/01/19 11:25:59;;;;;;;20.63;12.55;;;;;;;3.88;75.02;101307.13;4973406;28;20039;-94
2022/01/19 11:28:36;;;;;;;21.35;12.60;;;;;;;4.11;74.71;101345.41;4976922;28;20051;-92
2022/01/19 11:31:14;;;;;;;24.05;13.60;;;;;;;3.93;75.70;101335.06;4969609;28;20055;-95
2022/01/19 11:33:55;;;;;;;20.63;13.38;;;;;;;3.90;75.21;101311.50;4977710;28;20111;-92
2022/01/19 11:36:31;;;;;;;21.85;13.52;;;;;;;3.97;76.12;101318.41;4972987;28;20293;-93
2022/01/19 11:39:21;;;;;;;20.10;13.10;;;;;;;3.83;75.85;101282.69;4977962;28;20054;-92
2022/01/19 11:42:01;;;;;;;22.88;13.52;;;;;;;3.97;75.97;101286.97;4972921;28;20078;-93
2022/01/19 11:44:36;;;;;;;24.48;13.80;;;;;;;4.27;75.08;101328.72;4970441;28;21150;-93
2022/01/19 11:47:10;;;;;;;24.73;13.90;;;;;;;4.24;75.89;101310.41;4964421;28;20092;-94
2022/01/19 11:50:08;;;;;;;24.85;14.65;;;;;;;4.28;76.79;101311.25;4972925;28;20490;-94
2022/01/19 11:52:40;;;;;;;21.13;13.57;;;;;;;4.23;76.24;101303.44;4975484;28;20081;-94
2022/01/19 11:55:16;;;;;;;25.45;13.73;;;;;;;4.12;76.53;101266.78;4984561;28;20134;-92
2022/01/19 11:57:49;;;;;;;22.95;13.68;;;;;;;4.27;76.21;101278.91;4978248;28;20046;-93
2022/01/19 12:00:22;;;;;;;22.73;14.00;;;;;;;4.25;76.72;101272.81;4979138;28;20121;-93
2022/01/19 12:02:52;;;;;;;24.08;14.18;;;;;;;4.08;76.93;101266.84;4970461;28;20114;-95
2022/01/19 12:05:41;;;;;;;22.02;15.27;;;;;;;3.93;78.03;101277.41;4958924;28;20042;-93
2022/01/19 12:08:36;;;;;;;25.02;15.75;;;;;;;3.82;78.62;101262.59;4974616;28;20051;-92
2022/01/19 12:11:24;;;;;;;25.98;15.82;;;;;;;3.75;79.51;101253.06;4982832;28;20059;-93
2022/01/19 12:14:18;;;;;;;27.17;15.13;;;;;;;3.90;79.20;101254.72;4984385;28;20241;-96
2022/01/19 12:16:59;;;;;;;23.75;14.57;;;;;;;3.94;78.45;101238.06;4954374;28;20390;-92
2022/01/19 12:19:29;;;;;;;24.80;15.90;;;;;;;3.83;80.11;101214.56;4965637;28;20482;-95
2022/01/19 12:22:06;;;;;;;25.83;16.15;;;;;;;3.96;79.14;101222.34;4958530;28;20076;-94
2022/01/19 12:24:44;;;;;;;25.55;15.30;;;;;;;3.96;79.44;101214.47;4941566;28;20057;-94
2022/01/19 12:27:14;;;;;;;30.58;16.83;;;;;;;3.93;80.16;101215.41;4958708;28;20054;-95
2022/01/19 12:29:47;;;;;;;29.80;15.95;;;;;;;3.90;80.80;101212.78;4963704;28;20055;-94
2022/01/19 12:32:26;;;;;;;27.45;16.35;;;;;;;3.91;81.07;101203.19;4965306;28;20074;-94
2022/01/19 12:34:54;;;;;;;30.00;18.00;;;;;;;3.72;80.43;101166.63;4972221;28;20062;-94
2022/01/19 12:37:27;;;;;;;30.50;17.73;;;;;;;3.90;81.26;101199.69;4965440;28;20109;-94
2022/01/19 12:39:57;;;;;;;34.95;18.13;;;;;;;3.66;81.68;101166.66;4966898;28;20054;-95
2022/01/19 12:42:39;;;;;;;29.20;17.23;;;;;;;3.46;82.31;101131.88;4974403;28;20146;-93
2022/01/19 12:45:23;;;;;;;31.33;17.80;;;;;;;3.70;81.95;101196.31;4966959;28;20055;-94
2022/01/19 12:47:56;;;;;;;33.92;18.58;;;;;;;3.48;82.73;101179.84;4948592;28;20497;-95
2022/01/19 12:50:30;;;;;;;34.08;18.77;;;;;;;3.48;83.83;101208.66;4965882;28;20521;-93
2022/01/19 12:53:13;;;;;;;38.00;19.27;;;;;;;3.08;84.35;101143.41;4970222;28;20114;-94
2022/01/19 12:55:46;;;;;;;34.20;18.17;;;;;;;3.47;84.06;101201.69;4963095;28;20561;-95
2022/01/19 12:58:23;;;;;;;38.28;20.52;;;;;;;3.14;85.21;101160.84;4965541;28;20039;-95
2022/01/19 13:00:54;;;;;;;37.25;20.23;;;;;;;3.31;84.68;101184.31;4951697;28;20050;-95
2022/01/19 13:03:25;;;;;;;34.65;19.73;;;;;;;3.32;84.38;101183.44;4971340;28;20047;-94
2022/01/19 13:06:00;;;;;;;38.13;19.42;;;;;;;3.28;83.40;101161.66;4965460;28;20184;-94
2022/01/19 13:08:32;;;;;;;33.95;18.08;;;;;;;3.35;83.65;101162.47;4973359;28;20049;-94
2022/01/19 13:11:06;;;;;;;34.38;18.60;;;;;;;3.46;83.04;101182.47;4969648;28;20430;-94
2022/01/19 13:13:46;;;;;;;35.35;19.73;;;;;;;3.10;83.17;101119.88;4970677;28;20070;-94
2022/01/19 13:16:26;;;;;;;35.40;18.52;;;;;;;3.28;83.05;101138.09;4973158;28;20149;-93
2022/01/19 13:19:12;;;;;;;32.80;18.52;;;;;;;3.46;82.64;101176.41;4974553;28;20058;-94
2022/01/19 13:21:43;;;;;;;32.85;17.75;;;;;;;3.48;82.52;101164.13;4972694;28;20093;-93
2022/01/19 13:24:25;;;;;;;28.17;15.68;;;;;;;3.43;82.53;101155.47;4979215;28;20515;-94
2022/01/19 13:29:55;;;;;;;29.75;15.70;;;;;;;3.12;82.26;101094.56;5069000;23;21401;-95
2022/01/19 13:32:26;;;;;;;26.83;15.57;;;;;;;3.25;81.74;101125.03;4973915;28;20046;-96
2022/01/19 13:34:59;;;;;;;27.70;14.88;;;;;;;3.27;82.59;101127.63;4982387;28;20073;-93
2022/01/19 13:37:37;;;;;;;29.40;15.90;;;;;;;3.36;82.58;101143.28;4975148;28;20118;-94
2022/01/19 13:40:10;;;;;;;26.60;15.23;;;;;;;3.29;83.58;101141.59;5084322;23;20044;-95
2022/01/19 13:42:59;;;;;;;24.67;14.63;;;;;;;3.17;82.98;101109.34;4968295;28;20764;-95